D/T METAR WX W/DIR W/SPE G/SPE TEMP DEWP
8/12/19 10:00 EIME 081000Z 23018KT 9999 FEW014 SCT018CB 05/03 Q0993 SW (230°) 20.7mph 5°C 3°C
8/12/19 09:00 EIME 080900Z 23019KT 9999 FEW014 FEW018CB SCT040 05/03 Q0994 SW (230°) 21.9mph 5°C 3°C
8/12/19 08:00 EIME 080800Z 24018KT 9999 -SHRA FEW014 FEW018CB SCT037 06/04 Q0994 -SHRA WSW (240°) 20.7mph 6°C 4°C
8/12/19 07:00 EIME 080700Z 23018KT 9999 FEW018 SCT032 06/03 Q0994 SW (230°) 20.7mph 6°C 3°C
8/12/19 06:00 EIME 080600Z 24020G32KT 9999 -RADZ FEW014 SCT024 BKN033 07/04 Q0994 -RA -DZ WSW (240°) 23.0mph 36.8mph 7°C 4°C
8/12/19 05:00 EIME 080500Z 24018KT 9999 FEW014 BKN036 07/04 Q0994 WSW (240°) 20.7mph 7°C 4°C
8/12/19 04:00 EIME 080400Z 25022KT 9999 -SHRA FEW014 SCT018CB BKN030 07/04 Q0995 -SHRA WSW (250°) 25.3mph 7°C 4°C
8/12/19 03:00 EIME 080300Z 27021KT 9999 -RA FEW018 BKN028 07/06 Q0994 -RA W (270°) 24.2mph 7°C 6°C
8/12/19 02:00 EIME 080200Z 25023KT 9999 FEW018 BKN030 09/06 Q0994 WSW (250°) 26.5mph 9°C 6°C
8/12/19 01:00 EIME 080100Z 26019KT 9999 RA FEW013 SCT016 BKN036 09/08 Q0993 RA W (260°) 21.9mph 9°C 8°C
8/12/19 00:00 EIME 080000Z 26028G38KT 9999 -RA FEW013 SCT018 BKN036 11/09 Q0993 -RA W (260°) 32.2mph 43.7mph 11°C 9°C
7/12/19 23:00 EIME 072300Z 23024G36KT 7000 -RA FEW009 SCT012 BKN016 12/11 Q0991 -RA SW (230°) 27.6mph 41.4mph 12°C 11°C
7/12/19 22:00 EIME 072200Z 22028G42KT 9999 -RA FEW011 BKN022 BKN060 12/11 Q0991 -RA SW (220°) 32.2mph 48.3mph 12°C 11°C
7/12/19 21:00 EIME 072100Z 21028G38KT 9999 RA FEW015 BKN070 BKN100 11/10 Q0993 RA SSW (210°) 32.2mph 43.7mph 11°C 10°C
7/12/19 20:00 EIME 072000Z 21024G37KT 9999 -RA FEW015 BKN070 BKN090 11/11 Q0995 -RA SSW (210°) 27.6mph 42.6mph 11°C 11°C
7/12/19 19:00 EIME 071900Z 20026G37KT 9999 -RA FEW012 SCT100 BKN150 10/08 Q0999 -RA SSW (200°) 29.9mph 42.6mph 10°C 8°C
7/12/19 18:00 EIME 071800Z 21022G33KT 9999 FEW013 BKN180 10/08 Q1001 SSW (210°) 25.3mph 38.0mph 10°C 8°C
7/12/19 17:00 EIME 071700Z 21020G32KT 9999 FEW013 BKN230 10/09 Q1001 SSW (210°) 23.0mph 36.8mph 10°C 9°C
7/12/19 16:00 EIME 071600Z 21019KT 9999 FEW011 BKN300 10/09 Q1003 SSW (210°) 21.9mph 10°C 9°C
7/12/19 15:00 EIME 071500Z 21017KT 9999 FEW016 BKN300 11/09 Q1004 SSW (210°) 19.6mph 11°C 9°C
7/12/19 14:00 EIME 071400Z 21017KT 180V240 9999 FEW015 BKN300 11/09 Q1005 SSW (210°) 19.6mph 11°C 9°C
7/12/19 13:00 EIME 071300Z 21018G29KT 9999 FEW010 BKN080 BKN300 11/09 Q1006 SSW (210°) 20.7mph 33.4mph 11°C 9°C
7/12/19 12:00 EIME 071200Z 21019KT 9999 FEW011 BKN250 11/09 Q1007 SSW (210°) 21.9mph 11°C 9°C
7/12/19 11:00 EIME 071100Z 22016KT 9999 FEW009 SCT045 BKN090 10/08 Q1008 SW (220°) 18.4mph 10°C 8°C
7/12/19 10:00 EIME 071000Z 22017KT 9999 FEW007 BKN048 09/08 Q1009 SW (220°) 19.6mph 9°C 8°C
7/12/19 09:00 EIME 070900Z 22016KT 9999 -DZ FEW007 SCT070 BKN140 08/07 Q1009 -DZ SW (220°) 18.4mph 8°C 7°C
7/12/19 08:00 EIME 070800Z 22015KT 9999 FEW008 SCT033 BKN130 07/07 Q1009 SW (220°) 17.3mph 7°C 7°C
7/12/19 07:00 EIME 070700Z 22014KT 9999 BKN010 SCT012 07/07 Q1010 SW (220°) 16.1mph 7°C 7°C
7/12/19 06:00 EIME 070600Z 23014KT 9999 BKN009 OVC011 07/06 Q1010 SW (230°) 16.1mph 7°C 6°C
7/12/19 05:00 EIME 070500Z 24014KT 9999 -RADZ FEW007 BKN011 07/06 Q1010 -RA -DZ WSW (240°) 16.1mph 7°C 6°C
7/12/19 04:00 EIME 070400Z 23014KT 9999 FEW010 07/06 Q1009 SW (230°) 16.1mph 7°C 6°C
7/12/19 03:00 EIME 070300Z 24013KT 9999 FEW018 BKN026 07/06 Q1010 WSW (240°) 15.0mph 7°C 6°C
7/12/19 02:00 EIME 070200Z 24011KT 9999 -DZ SCT008 BKN033 07/07 Q1009 -DZ WSW (240°) 12.7mph 7°C 7°C
7/12/19 01:00 EIME 070100Z 23013KT 9999 FEW008 BKN030 07/07 Q1009 SW (230°) 15.0mph 7°C 7°C
7/12/19 00:00 EIME 070000Z 24013KT 9999 FEW018 SCT035 07/06 Q1009 WSW (240°) 15.0mph 7°C 6°C
6/12/19 23:00 EIME 062300Z 24014KT 9999 FEW014 07/06 Q1009 WSW (240°) 16.1mph 7°C 6°C
6/12/19 22:00 EIME 062200Z 23015KT 9999 FEW018 07/06 Q1008 SW (230°) 17.3mph 7°C 6°C
6/12/19 21:00 EIME 062100Z 24012KT 9999 FEW012 BKN026 07/06 Q1007 WSW (240°) 13.8mph 7°C 6°C
6/12/19 20:00 EIME 062000Z 24017KT 9999 FEW014 BKN019 08/06 Q1007 WSW (240°) 19.6mph 8°C 6°C
6/12/19 19:00 EIME 061900Z 25014KT 9999 FEW014 BKN024 07/06 Q1006 WSW (250°) 16.1mph 7°C 6°C
6/12/19 18:00 EIME 061800Z 25015KT 9999 FEW014 BKN018 08/06 Q1005 WSW (250°) 17.3mph 8°C 6°C
6/12/19 17:00 EIME 061700Z 25014KT 9999 FEW016 08/06 Q1004 WSW (250°) 16.1mph 8°C 6°C
6/12/19 16:30 EIME 061630Z 26014KT 9999 FEW016 SCT035 08/06 Q1003 W (260°) 16.1mph 8°C 6°C
6/12/19 16:00 EIME 061600Z 27015KT 9999 FEW016 08/06 Q1003 W (270°) 17.3mph 8°C 6°C
6/12/19 15:30 EIME 061530Z 26020KT 9999 FEW018 BKN020 BKN040 09/07 Q1002 W (260°) 23.0mph 9°C 7°C
6/12/19 15:00 EIME 061500Z 26020KT 9999 FEW018 SCT021 BKN040 09/07 Q1002 W (260°) 23.0mph 9°C 7°C
6/12/19 14:30 EIME 061430Z 26018KT 9999 SCT017 FEW018CB BKN030 09/07 Q1001 RERA W (260°) 20.7mph 9°C 7°C
6/12/19 14:00 EIME 061400Z 26018KT 9999 -RA FEW014 BKN017 BKN026 08/07 Q1001 -RA W (260°) 20.7mph 8°C 7°C